Time;durP1;ratioP1;P1;durP2;ratioP2;P2;SDS_P1;SDS_P2;PMS_P1;PMS_P2;Temp;Humidity;BMP_temperature;BMP_pressure;BME280_temperature;BME280_humidity;BME280_pressure;Samples;Min_cycle;Max_cycle;Signal;HPM_P1;HPM_P2
2023/05/25 00:01:47;;;;;;;5.97;3.35;;;18.40;44.50;;;;;;4998177;28;20269;-81
2023/05/25 00:04:15;;;;;;;4.90;2.70;;;18.40;44.70;;;;;;5001564;28;20032;-81
2023/05/25 00:06:44;;;;;;;5.43;3.30;;;18.40;44.80;;;;;;5003977;28;20088;-79
2023/05/25 00:12:17;;;;;;;7.40;3.92;;;18.30;45.00;;;;;;4996487;28;20474;-81
2023/05/25 00:14:43;;;;;;;4.53;2.92;;;18.30;44.90;;;;;;5000507;28;20292;-81
2023/05/25 00:17:10;;;;;;;7.35;3.83;;;18.20;44.80;;;;;;5001519;28;20132;-81
2023/05/25 00:19:41;;;;;;;5.97;3.03;;;18.20;45.60;;;;;;4999244;28;20058;-82
2023/05/25 00:22:11;;;;;;;5.30;3.33;;;18.20;45.10;;;;;;4991973;28;20030;-81
2023/05/25 00:24:38;;;;;;;5.85;3.17;;;18.10;45.00;;;;;;4996463;28;20054;-82
2023/05/25 00:27:06;;;;;;;5.63;3.17;;;18.10;45.10;;;;;;4999186;28;20243;-82
2023/05/25 00:29:59;;;;;;;6.65;3.80;;;18.10;45.20;;;;;;4999079;28;20416;-80
2023/05/25 00:32:26;;;;;;;6.07;2.97;;;18.10;45.50;;;;;;5000045;28;20034;-81
2023/05/25 00:35:02;;;;;;;7.15;4.15;;;18.00;45.20;;;;;;4992479;28;20044;-81
2023/05/25 00:37:28;;;;;;;7.07;2.88;;;18.00;45.20;;;;;;5000469;28;20077;-80
2023/05/25 00:39:55;;;;;;;5.78;3.22;;;18.00;45.90;;;;;;4998948;28;20025;-78
2023/05/25 00:42:22;;;;;;;6.25;3.10;;;17.90;45.30;;;;;;4999005;28;20115;-79
2023/05/25 00:44:51;;;;;;;5.13;3.03;;;17.90;45.40;;;;;;5000074;28;20046;-80
2023/05/25 00:47:17;;;;;;;4.80;3.17;;;17.90;45.50;;;;;;5000225;28;20049;-80
2023/05/25 00:49:43;;;;;;;4.53;2.55;;;17.90;45.50;;;;;;4997826;28;20037;-79
2023/05/25 00:52:14;;;;;;;4.60;3.20;;;17.90;45.60;;;;;;4999204;28;20478;-81
2023/05/25 00:54:46;;;;;;;5.47;2.65;;;17.80;45.60;;;;;;4983946;28;20125;-81
2023/05/25 00:57:15;;;;;;;7.25;3.47;;;17.80;45.60;;;;;;4999365;28;20452;-81
2023/05/25 01:00:11;;;;;;;6.68;2.75;;;17.80;45.70;;;;;;4998900;28;20450;-81
2023/05/25 01:02:58;;;;;;;3.40;2.53;;;17.80;45.90;;;;;;4996957;28;20080;-79
2023/05/25 01:05:28;;;;;;;3.65;2.38;;;17.70;45.60;;;;;;4997826;28;20077;-81
2023/05/25 01:08:00;;;;;;;6.10;3.22;;;17.70;45.70;;;;;;4998783;28;20498;-80
2023/05/25 01:10:31;;;;;;;5.47;2.78;;;17.60;45.70;;;;;;4999062;28;20326;-82
2023/05/25 01:13:00;;;;;;;3.75;2.63;;;17.60;45.80;;;;;;4998058;28;20061;-82
2023/05/25 01:15:29;;;;;;;4.78;2.42;;;17.50;45.70;;;;;;5000717;28;20049;-80
2023/05/25 01:17:58;;;;;;;4.70;2.78;;;17.50;45.80;;;;;;4999470;28;20439;-80
2023/05/25 01:20:26;;;;;;;4.50;2.55;;;17.50;45.90;;;;;;4999269;28;20026;-79
2023/05/25 01:23:11;;;;;;;4.60;2.33;;;17.50;46.10;;;;;;5012083;28;20044;-78
2023/05/25 01:25:50;;;;;;;4.82;2.72;;;17.40;46.00;;;;;;4998674;28;20524;-80
2023/05/25 01:28:34;;;;;;;5.97;3.00;;;17.40;46.10;;;;;;4996541;28;20290;-80
2023/05/25 01:31:01;;;;;;;6.07;2.88;;;17.40;46.20;;;;;;4995590;28;20033;-80
2023/05/25 01:33:28;;;;;;;3.85;2.28;;;17.30;46.00;;;;;;5005141;28;20045;-80
2023/05/25 01:36:14;;;;;;;5.82;3.20;;;17.30;46.20;;;;;;4983560;28;20387;-80
2023/05/25 01:38:44;;;;;;;5.78;2.70;;;17.20;46.00;;;;;;5001087;28;20117;-81
2023/05/25 01:41:10;;;;;;;3.38;2.50;;;17.30;46.30;;;;;;5003373;28;20124;-80
2023/05/25 01:43:36;;;;;;;9.10;3.40;;;17.30;46.40;;;;;;4998301;28;20085;-80
2023/05/25 01:46:18;;;;;;;5.75;2.95;;;17.20;46.40;;;;;;4984696;28;20497;-80
2023/05/25 01:49:09;;;;;;;4.57;2.70;;;17.20;46.50;;;;;;4985019;28;20046;-81
2023/05/25 01:51:44;;;;;;;3.72;2.33;;;17.20;46.50;;;;;;4985613;28;20035;-80
2023/05/25 01:54:18;;;;;;;5.22;2.83;;;17.10;46.30;;;;;;4986480;28;20090;-81
2023/05/25 01:56:50;;;;;;;3.85;2.47;;;17.10;46.40;;;;;;4981353;28;20512;-82
2023/05/25 01:59:21;;;;;;;6.57;2.85;;;17.10;46.50;;;;;;4984025;28;20026;-81
2023/05/25 02:01:50;;;;;;;3.67;2.45;;;17.10;46.60;;;;;;4985139;28;20034;-80
2023/05/25 02:04:21;;;;;;;5.28;2.60;;;17.00;46.50;;;;;;4985859;28;20045;-82
2023/05/25 02:06:57;;;;;;;3.83;2.67;;;17.00;46.50;;;;;;4985494;28;20405;-82
2023/05/25 02:09:23;;;;;;;5.53;2.30;;;17.00;46.70;;;;;;4985693;28;20042;-81
2023/05/25 02:11:50;;;;;;;4.88;3.47;;;16.90;46.60;;;;;;4984395;28;20033;-81
2023/05/25 02:14:17;;;;;;;4.68;2.85;;;16.90;46.70;;;;;;4983683;28;20122;-81
2023/05/25 02:16:46;;;;;;;4.25;2.55;;;16.90;46.80;;;;;;4984271;28;20041;-81
2023/05/25 02:19:13;;;;;;;6.13;2.70;;;16.80;46.80;;;;;;4986594;28;20445;-83
2023/05/25 02:21:41;;;;;;;5.00;2.53;;;16.80;46.80;;;;;;4983353;28;20470;-81
2023/05/25 02:24:10;;;;;;;4.07;2.35;;;16.80;47.00;;;;;;4989755;28;20042;-82
2023/05/25 02:26:39;;;;;;;6.43;3.70;;;16.70;46.90;;;;;;4987135;28;20070;-82
2023/05/25 02:29:05;;;;;;;4.90;2.72;;;16.70;47.00;;;;;;4971450;28;20053;-79
2023/05/25 02:31:35;;;;;;;5.68;3.03;;;16.70;47.10;;;;;;4989814;28;20041;-80
2023/05/25 02:34:01;;;;;;;5.38;2.80;;;16.70;47.20;;;;;;4984393;28;20108;-81
2023/05/25 02:36:28;;;;;;;4.50;2.95;;;16.70;47.30;;;;;;4985337;28;20076;-82
2023/05/25 02:38:54;;;;;;;4.72;2.85;;;16.60;47.10;;;;;;4986441;28;20038;-82
2023/05/25 02:41:20;;;;;;;4.80;2.90;;;16.60;47.20;;;;;;4990462;28;20550;-81
2023/05/25 02:43:50;;;;;;;4.95;2.72;;;16.60;47.30;;;;;;4985785;28;20228;-81
2023/05/25 02:46:22;;;;;;;3.67;2.45;;;16.60;47.30;;;;;;4990606;28;20411;-81
2023/05/25 02:48:49;;;;;;;5.78;3.22;;;16.60;47.30;;;;;;5005481;28;20037;-81
2023/05/25 02:51:16;;;;;;;3.80;2.90;;;16.50;47.30;;;;;;5015938;28;20053;-81
2023/05/25 02:53:42;;;;;;;6.82;2.63;;;16.50;47.40;;;;;;5023082;28;20049;-82
2023/05/25 02:56:09;;;;;;;3.47;2.33;;;16.50;47.50;;;;;;5007232;28;20116;-80
2023/05/25 02:58:37;;;;;;;4.80;2.55;;;16.50;47.60;;;;;;5006289;28;20037;-81
2023/05/25 03:01:16;;;;;;;4.25;2.90;;;16.40;47.40;;;;;;5006876;28;20080;-82
2023/05/25 03:03:45;;;;;;;6.18;2.97;;;16.40;47.50;;;;;;5005743;28;20054;-80
2023/05/25 03:06:15;;;;;;;5.05;2.50;;;16.40;47.60;;;;;;5007180;28;20034;-81
2023/05/25 03:08:43;;;;;;;5.50;2.95;;;16.40;47.60;;;;;;5007039;28;20508;-80
2023/05/25 03:11:12;;;;;;;6.85;3.80;;;16.40;47.70;;;;;;5006850;28;20521;-80
2023/05/25 03:13:48;;;;;;;5.38;3.00;;;16.30;47.60;;;;;;5005604;28;20535;-81
2023/05/25 03:16:15;;;;;;;5.90;3.55;;;16.30;47.80;;;;;;5005483;28;20416;-80
2023/05/25 03:18:45;;;;;;;3.70;2.45;;;16.20;47.70;;;;;;5006123;28;20049;-80
2023/05/25 03:21:11;;;;;;;5.25;3.08;;;16.20;47.80;;;;;;4985100;28;20025;-80
2023/05/25 03:23:37;;;;;;;2.60;2.20;;;16.20;47.90;;;;;;5006549;28;20075;-80
2023/05/25 03:26:07;;;;;;;4.68;2.83;;;16.20;48.00;;;;;;5003807;28;20053;-80
2023/05/25 03:28:33;;;;;;;4.63;2.67;;;16.10;47.90;;;;;;5004736;28;20087;-78
2023/05/25 03:31:00;;;;;;;3.25;2.88;;;16.10;48.10;;;;;;5005378;28;20470;-78
2023/05/25 03:33:26;;;;;;;3.13;2.50;;;16.10;48.10;;;;;;4994423;28;20030;-78
2023/05/25 03:35:52;;;;;;;5.70;2.70;;;16.00;48.00;;;;;;5006129;28;20033;-78
2023/05/25 03:38:19;;;;;;;6.43;3.13;;;16.00;48.10;;;;;;5004387;28;20037;-77
2023/05/25 03:40:46;;;;;;;4.50;2.63;;;16.00;48.20;;;;;;5005093;28;20133;-80
2023/05/25 03:43:15;;;;;;;5.10;3.10;;;16.00;48.30;;;;;;5000674;28;20030;-80
2023/05/25 03:45:44;;;;;;;4.40;2.10;;;16.00;48.30;;;;;;5005728;28;20124;-79
2023/05/25 03:48:11;;;;;;;5.75;2.97;;;16.00;48.40;;;;;;5005435;28;20169;-80
2023/05/25 03:50:40;;;;;;;3.75;2.72;;;15.90;48.30;;;;;;4997595;28;20034;-80
2023/05/25 03:53:07;;;;;;;3.25;2.38;;;15.90;48.30;;;;;;5006979;28;20029;-80
2023/05/25 03:55:40;;;;;;;5.43;2.80;;;15.90;48.40;;;;;;5005818;28;20054;-80
2023/05/25 03:58:09;;;;;;;3.88;2.97;;;15.90;48.40;;;;;;5002521;28;20026;-79
2023/05/25 04:00:42;;;;;;;5.95;3.55;;;15.90;48.50;;;;;;5015082;28;20041;-79
2023/05/25 04:03:10;;;;;;;8.27;3.38;;;15.80;48.40;;;;;;5004646;28;20126;-80
2023/05/25 04:05:37;;;;;;;5.63;3.30;;;15.90;48.70;;;;;;5006083;28;20140;-79
2023/05/25 04:08:03;;;;;;;4.50;3.05;;;15.80;48.50;;;;;;5005216;28;20041;-81
2023/05/25 04:10:30;;;;;;;3.33;2.40;;;15.80;48.60;;;;;;5002793;28;20038;-81
2023/05/25 04:12:56;;;;;;;5.22;2.90;;;15.80;48.70;;;;;;4997701;28;20038;-80
2023/05/25 04:15:22;;;;;;;5.50;3.25;;;15.70;48.60;;;;;;5004617;28;20096;-80
2023/05/25 04:18:05;;;;;;;4.95;2.78;;;15.70;48.70;;;;;;5001462;28;20050;-81
2023/05/25 04:20:31;;;;;;;5.32;3.50;;;15.70;48.70;;;;;;4998662;28;20058;-79
2023/05/25 04:23:01;;;;;;;6.28;3.95;;;15.60;48.70;;;;;;5004420;28;20199;-80
2023/05/25 04:25:27;;;;;;;3.13;2.60;;;15.60;48.70;;;;;;5006449;28;20084;-79
2023/05/25 04:27:55;;;;;;;5.53;3.05;;;15.60;48.90;;;;;;5003066;28;20124;-79
2023/05/25 04:30:41;;;;;;;4.45;2.97;;;15.60;49.00;;;;;;5004481;28;20150;-80
2023/05/25 04:33:19;;;;;;;3.15;2.33;;;15.50;48.80;;;;;;5004268;28;20026;-79
2023/05/25 04:35:59;;;;;;;4.78;3.15;;;15.50;49.50;;;;;;5014083;28;20042;-79
2023/05/25 04:38:26;;;;;;;3.38;3.00;;;15.50;49.00;;;;;;5015644;28;20034;-80
2023/05/25 04:40:53;;;;;;;2.95;2.00;;;15.50;49.00;;;;;;5015866;28;20400;-79
2023/05/25 04:43:24;;;;;;;4.30;2.85;;;15.50;49.10;;;;;;5010695;28;20042;-79
2023/05/25 04:45:52;;;;;;;3.90;2.65;;;15.50;49.10;;;;;;5011765;28;20057;-78
2023/05/25 04:48:39;;;;;;;4.40;2.85;;;15.50;49.10;;;;;;4977025;28;20058;-79
2023/05/25 04:51:06;;;;;;;5.72;3.55;;;15.60;49.30;;;;;;4964790;28;20481;-79
2023/05/25 04:53:34;;;;;;;3.78;2.42;;;15.50;49.10;;;;;;4962933;28;20128;-80
2023/05/25 04:56:01;;;;;;;3.00;2.42;;;15.60;49.30;;;;;;4972827;28;20077;-79
2023/05/25 04:58:28;;;;;;;3.88;2.60;;;15.60;49.30;;;;;;4967918;28;20061;-80
2023/05/25 05:00:57;;;;;;;3.65;2.47;;;15.60;49.30;;;;;;4998772;28;20065;-81
2023/05/25 05:03:27;;;;;;;4.82;3.20;;;15.60;49.20;;;;;;4998388;28;20030;-80
2023/05/25 05:05:53;;;;;;;4.25;3.17;;;15.70;49.40;;;;;;5000012;28;20052;-79
2023/05/25 05:08:24;;;;;;;3.03;2.13;;;15.70;49.40;;;;;;4998538;28;20056;-79
2023/05/25 05:10:59;;;;;;;3.42;2.65;;;15.70;49.40;;;;;;4998765;28;20599;-78
2023/05/25 05:13:28;;;;;;;5.00;3.75;;;15.80;49.50;;;;;;4996649;28;20034;-77
2023/05/25 05:15:59;;;;;;;3.72;2.50;;;15.80;49.50;;;;;;4998183;28;20033;-79
2023/05/25 05:18:25;;;;;;;6.25;2.78;;;15.80;49.40;;;;;;4998169;28;20117;-80
2023/05/25 05:20:54;;;;;;;4.22;2.50;;;15.90;49.60;;;;;;5000870;28;20076;-79
2023/05/25 05:23:20;;;;;;;4.63;2.42;;;15.90;49.60;;;;;;4998905;28;20481;-78
2023/05/25 05:25:46;;;;;;;4.35;2.80;;;16.00;49.70;;;;;;4991914;28;20066;-79
2023/05/25 05:28:14;;;;;;;5.00;3.00;;;16.00;49.60;;;;;;4993942;28;20036;-79
2023/05/25 05:30:42;;;;;;;4.70;2.22;;;16.10;49.80;;;;;;4990774;28;20029;-79
2023/05/25 05:33:09;;;;;;;3.25;2.17;;;16.10;49.70;;;;;;4994702;28;20121;-78
2023/05/25 05:35:46;;;;;;;2.85;2.50;;;16.20;49.90;;;;;;4993138;28;20113;-79
2023/05/25 05:38:17;;;;;;;3.05;2.67;;;16.30;49.90;;;;;;4994421;28;20792;-80
2023/05/25 05:40:44;;;;;;;3.00;2.40;;;16.40;50.00;;;;;;4992487;28;20044;-79
2023/05/25 05:43:12;;;;;;;3.13;2.38;;;16.50;50.10;;;;;;4990701;28;20102;-84
2023/05/25 05:45:39;;;;;;;4.65;2.45;;;16.70;50.30;;;;;;4994540;28;20444;-85
2023/05/25 05:48:35;;;;;;;3.58;2.65;;;16.80;50.30;;;;;;4945803;28;20039;-80
2023/05/25 05:51:05;;;;;;;5.07;3.30;;;17.00;50.40;;;;;;5000759;28;20087;-80
2023/05/25 05:53:34;;;;;;;4.25;2.38;;;17.10;50.50;;;;;;4992578;28;20040;-83
2023/05/25 05:56:01;;;;;;;5.53;3.42;;;17.30;50.70;;;;;;4995632;28;20102;-81
2023/05/25 05:58:28;;;;;;;6.38;2.35;;;17.40;50.70;;;;;;5005119;28;20038;-78
2023/05/25 06:00:56;;;;;;;5.00;2.58;;;17.60;51.00;;;;;;5013441;28;20057;-78
2023/05/25 06:03:23;;;;;;;3.45;2.35;;;17.80;51.80;;;;;;4995799;28;20034;-79
2023/05/25 06:05:52;;;;;;;3.97;2.47;;;18.00;52.20;;;;;;5013075;28;20504;-78
2023/05/25 06:08:18;;;;;;;5.63;2.78;;;18.30;52.50;;;;;;4996912;28;20941;-79
2023/05/25 06:10:45;;;;;;;3.53;2.53;;;18.50;52.70;;;;;;5005969;28;20029;-79
2023/05/25 06:13:11;;;;;;;5.93;3.00;;;18.80;53.00;;;;;;4995914;28;20037;-79
2023/05/25 06:15:38;;;;;;;3.20;2.65;;;19.10;53.20;;;;;;4992556;28;20113;-80
2023/05/25 06:18:09;;;;;;;7.25;2.60;;;19.40;53.20;;;;;;4994372;28;20474;-77
2023/05/25 06:20:35;;;;;;;4.68;2.70;;;19.70;53.10;;;;;;4991712;28;20049;-78
2023/05/25 06:23:02;;;;;;;4.72;3.13;;;20.10;53.00;;;;;;4993548;28;20133;-83
2023/05/25 06:25:51;;;;;;;4.88;2.50;;;20.50;52.90;;;;;;4983228;28;20609;-78
2023/05/25 06:28:17;;;;;;;4.35;2.63;;;21.00;52.80;;;;;;4991830;28;20046;-78
2023/05/25 06:30:43;;;;;;;7.03;3.42;;;21.40;52.60;;;;;;4996313;28;20092;-76
2023/05/25 06:33:13;;;;;;;3.10;2.63;;;21.90;52.80;;;;;;4992208;28;20034;-82
2023/05/25 06:35:40;;;;;;;4.47;3.10;;;22.30;52.70;;;;;;4993940;28;20053;-83
2023/05/25 06:38:15;;;;;;;4.70;3.13;;;22.70;52.70;;;;;;4990594;28;20232;-80
2023/05/25 06:40:41;;;;;;;4.55;2.80;;;23.20;52.70;;;;;;4993906;28;20609;-80
2023/05/25 06:43:08;;;;;;;7.55;2.80;;;23.60;52.70;;;;;;4978491;28;20030;-81
2023/05/25 06:46:01;;;;;;;5.93;3.40;;;23.90;52.30;;;;;;4993035;28;20620;-81
2023/05/25 06:48:30;;;;;;;5.55;3.35;;;24.40;52.30;;;;;;4993070;28;20100;-82
2023/05/25 06:50:56;;;;;;;5.35;2.85;;;24.80;52.20;;;;;;4997410;28;20041;-81
2023/05/25 06:53:40;;;;;;;4.47;2.83;;;25.10;51.80;;;;;;4992264;28;20104;-82
2023/05/25 06:56:06;;;;;;;5.22;2.47;;;25.50;51.20;;;;;;4990653;28;20034;-82
2023/05/25 06:58:32;;;;;;;4.40;3.28;;;25.80;50.60;;;;;;4993228;28;20544;-82
2023/05/25 07:00:59;;;;;;;5.72;2.90;;;26.10;50.00;;;;;;4993647;28;20117;-84
2023/05/25 07:03:26;;;;;;;4.65;3.35;;;26.40;49.60;;;;;;4990457;28;20046;-84
2023/05/25 07:05:52;;;;;;;5.43;2.92;;;26.70;49.10;;;;;;4994575;28;20044;-83
2023/05/25 07:08:18;;;;;;;3.85;3.08;;;27.00;48.60;;;;;;4991729;28;20437;-84
2023/05/25 07:10:47;;;;;;;4.63;3.00;;;27.30;48.10;;;;;;4996079;28;20807;-83
2023/05/25 07:13:19;;;;;;;3.92;2.85;;;27.70;47.60;;;;;;4993857;28;20029;-85
2023/05/25 07:15:51;;;;;;;3.80;2.63;;;28.00;46.90;;;;;;4981721;28;20502;-84
2023/05/25 07:18:18;;;;;;;4.68;2.65;;;28.40;46.30;;;;;;4996269;28;20285;-84
2023/05/25 07:20:47;;;;;;;5.35;2.72;;;28.70;45.70;;;;;;4997094;28;20790;-86
2023/05/25 07:23:13;;;;;;;4.28;2.58;;;29.00;45.30;;;;;;5007607;28;20092;-84
2023/05/25 07:25:40;;;;;;;3.42;2.72;;;29.10;45.00;;;;;;4996755;28;20045;-90
2023/05/25 07:28:07;;;;;;;3.13;2.42;;;29.10;44.90;;;;;;4997942;28;20046;-86
2023/05/25 07:30:33;;;;;;;6.95;2.75;;;29.00;45.00;;;;;;4998758;28;20513;-82
2023/05/25 07:32:59;;;;;;;3.78;2.20;;;28.90;45.00;;;;;;5001374;28;20136;-80
2023/05/25 07:35:26;;;;;;;4.57;2.83;;;29.00;45.00;;;;;;4996786;28;20084;-82
2023/05/25 07:38:03;;;;;;;4.68;2.65;;;29.00;44.70;;;;;;4993915;28;20124;-84
2023/05/25 07:40:29;;;;;;;3.63;2.80;;;29.30;44.10;;;;;;4992633;28;20554;-86
2023/05/25 07:42:55;;;;;;;6.22;3.22;;;29.60;43.50;;;;;;5002988;28;20341;-85
2023/05/25 07:45:31;;;;;;;5.22;3.08;;;30.00;43.00;;;;;;4991638;28;20216;-86
2023/05/25 07:48:00;;;;;;;4.78;3.30;;;30.30;42.50;;;;;;4999352;28;20562;-85
2023/05/25 07:50:26;;;;;;;6.30;3.42;;;30.50;42.10;;;;;;4994954;28;20076;-86
2023/05/25 07:52:57;;;;;;;5.95;3.03;;;30.70;41.70;;;;;;4994615;28;20033;-89
2023/05/25 07:55:23;;;;;;;3.00;2.22;;;30.80;41.50;;;;;;4996464;28;20043;-86
2023/05/25 07:57:52;;;;;;;6.18;2.65;;;30.90;41.50;;;;;;5000758;28;20046;-84
2023/05/25 08:00:18;;;;;;;3.88;2.42;;;30.90;41.50;;;;;;4993390;28;20038;-86
2023/05/25 08:02:48;;;;;;;2.95;2.63;;;30.90;41.50;;;;;;4996284;28;20417;-84
2023/05/25 08:05:17;;;;;;;4.45;2.42;;;30.90;41.40;;;;;;4992725;28;20288;-82
2023/05/25 08:07:45;;;;;;;4.78;2.33;;;30.80;41.50;;;;;;4992482;28;20065;-85
2023/05/25 08:10:11;;;;;;;4.35;3.05;;;30.60;41.60;;;;;;4993226;28;20040;-85
2023/05/25 08:12:37;;;;;;;5.35;3.28;;;30.50;41.80;;;;;;4993857;28;20479;-84
2023/05/25 08:15:06;;;;;;;2.75;2.28;;;30.30;41.80;;;;;;4988695;28;20438;-84
2023/05/25 08:17:32;;;;;;;3.72;2.50;;;30.10;41.90;;;;;;4989862;28;20029;-82
2023/05/25 08:19:58;;;;;;;4.22;3.08;;;30.00;41.90;;;;;;4990191;28;20030;-83
2023/05/25 08:22:28;;;;;;;4.82;2.53;;;29.80;41.90;;;;;;4987094;28;20128;-85
2023/05/25 08:24:58;;;;;;;4.97;3.35;;;29.70;42.00;;;;;;4988813;28;20128;-84
2023/05/25 08:27:24;;;;;;;4.18;2.80;;;29.60;42.00;;;;;;4988584;28;20100;-83
2023/05/25 08:29:50;;;;;;;5.70;3.33;;;29.60;42.10;;;;;;4994082;28;20041;-80
2023/05/25 08:32:42;;;;;;;4.50;2.67;;;29.50;42.00;;;;;;4948245;28;20229;-80
2023/05/25 08:35:08;;;;;;;4.38;3.03;;;29.50;42.00;;;;;;4987844;28;20505;-80
2023/05/25 08:37:35;;;;;;;7.32;3.08;;;29.60;42.10;;;;;;4993832;28;20041;-81
2023/05/25 08:40:01;;;;;;;5.32;2.70;;;29.60;42.00;;;;;;4998801;28;20111;-81
2023/05/25 08:42:47;;;;;;;4.30;2.33;;;29.60;41.90;;;;;;4957200;28;20057;-81
2023/05/25 08:45:31;;;;;;;5.15;3.25;;;29.60;41.80;;;;;;4956550;28;20077;-82
2023/05/25 08:47:58;;;;;;;6.10;2.53;;;29.70;41.70;;;;;;4948369;28;20057;-81
2023/05/25 08:50:26;;;;;;;3.78;2.63;;;29.70;41.60;;;;;;4957469;28;20070;-79
2023/05/25 08:52:54;;;;;;;4.85;2.88;;;29.60;41.50;;;;;;4954957;28;20070;-78
2023/05/25 08:55:23;;;;;;;5.10;2.95;;;29.60;41.70;;;;;;4998073;28;20574;-80
2023/05/25 08:58:06;;;;;;;4.35;3.10;;;29.50;41.60;;;;;;4992183;28;20034;-80
2023/05/25 09:00:37;;;;;;;5.13;2.88;;;29.40;41.70;;;;;;4993191;28;20046;-79
2023/05/25 09:03:16;;;;;;;10.45;3.30;;;29.40;41.80;;;;;;5000683;28;21048;-82
2023/05/25 09:05:44;;;;;;;5.47;3.30;;;29.30;41.80;;;;;;4997017;28;20077;-82
2023/05/25 09:08:29;;;;;;;3.83;2.80;;;29.30;41.80;;;;;;4989730;28;20038;-80
2023/05/25 09:10:56;;;;;;;5.43;3.00;;;29.40;41.90;;;;;;4995447;28;20041;-83
2023/05/25 09:13:23;;;;;;;4.05;2.63;;;29.40;41.80;;;;;;4990973;28;20629;-82
2023/05/25 09:15:49;;;;;;;4.03;2.95;;;29.40;41.70;;;;;;4991679;28;20083;-81
2023/05/25 09:18:18;;;;;;;4.40;3.10;;;29.40;41.70;;;;;;4990092;28;20356;-80
2023/05/25 09:20:45;;;;;;;6.60;3.00;;;29.40;41.60;;;;;;4991190;28;20046;-80
2023/05/25 09:23:11;;;;;;;4.85;3.25;;;29.50;41.60;;;;;;4993140;28;20109;-81
2023/05/25 09:25:41;;;;;;;5.53;3.03;;;29.50;41.60;;;;;;4986945;28;20054;-81
2023/05/25 09:28:08;;;;;;;6.65;2.83;;;29.50;41.60;;;;;;4985980;28;20098;-80
2023/05/25 09:30:35;;;;;;;4.57;2.80;;;29.50;42.10;;;;;;4987548;28;20041;-82
2023/05/25 09:33:10;;;;;;;;;;;29.60;41.50;;;;;;4994203;28;20026;-84
2023/05/25 09:35:36;;;;;;;4.35;2.97;;;29.60;41.50;;;;;;4991070;28;19942;-84
2023/05/25 09:38:03;;;;;;;3.90;2.63;;;29.70;41.40;;;;;;4988055;28;20072;-83
2023/05/25 09:40:36;;;;;;;4.05;2.45;;;29.80;41.40;;;;;;4990447;28;20041;-84
2023/05/25 09:43:03;;;;;;;6.28;2.72;;;29.80;41.20;;;;;;4986674;28;20370;-82
2023/05/25 09:45:32;;;;;;;5.47;3.33;;;30.00;41.80;;;;;;4988733;28;20050;-82
2023/05/25 09:48:01;;;;;;;8.15;3.45;;;30.00;41.00;;;;;;4990447;28;20388;-82
2023/05/25 09:50:28;;;;;;;7.22;3.50;;;30.10;40.90;;;;;;4975393;28;20038;-82
2023/05/25 09:52:59;;;;;;;5.30;3.35;;;30.10;40.80;;;;;;4992222;28;20628;-77
2023/05/25 09:55:28;;;;;;;6.43;3.47;;;30.20;40.60;;;;;;4988474;28;20066;-80
2023/05/25 09:57:56;;;;;;;4.18;2.63;;;30.20;40.60;;;;;;4990593;28;20034;-79
2023/05/25 10:00:23;;;;;;;6.63;3.00;;;30.30;40.50;;;;;;4990429;28;20030;-81
2023/05/25 10:02:50;;;;;;;6.30;3.05;;;30.40;40.40;;;;;;4992100;28;20140;-82
2023/05/25 10:05:16;;;;;;;6.85;3.80;;;30.40;40.20;;;;;;4988357;28;20501;-81
2023/05/25 10:07:47;;;;;;;8.15;3.50;;;30.50;40.10;;;;;;4990943;28;20107;-82
2023/05/25 10:10:19;;;;;;;7.25;3.97;;;30.60;40.00;;;;;;4990916;28;20119;-82
2023/05/25 10:12:56;;;;;;;5.35;3.20;;;30.70;39.90;;;;;;4991368;28;20180;-82
2023/05/25 10:15:22;;;;;;;4.43;3.33;;;30.80;39.80;;;;;;5005010;28;20112;-83
2023/05/25 10:18:01;;;;;;;6.90;3.33;;;30.90;39.70;;;;;;4989579;28;20257;-85
2023/05/25 10:20:28;;;;;;;3.83;2.80;;;31.00;39.60;;;;;;4989111;28;20173;-83
2023/05/25 10:23:13;;;;;;;5.03;3.45;;;31.10;39.40;;;;;;4989174;28;20044;-82
2023/05/25 10:25:50;;;;;;;7.63;3.95;;;31.10;39.10;;;;;;4992701;28;20242;-82
2023/05/25 10:28:25;;;;;;;6.10;3.50;;;31.20;39.10;;;;;;4987091;28;20808;-86
2023/05/25 10:30:54;;;;;;;6.82;3.30;;;31.30;39.10;;;;;;4988701;28;20045;-83
2023/05/25 10:33:40;;;;;;;6.57;3.63;;;31.30;39.70;;;;;;4973630;28;20042;-82
2023/05/25 10:36:09;;;;;;;3.85;3.15;;;31.40;38.90;;;;;;4986677;28;20038;-83
2023/05/25 10:38:38;;;;;;;5.90;3.08;;;31.50;38.90;;;;;;4995188;28;20034;-83
2023/05/25 10:41:05;;;;;;;8.07;3.97;;;31.50;38.80;;;;;;4992626;28;20030;-85
2023/05/25 10:43:34;;;;;;;7.65;4.13;;;31.60;38.80;;;;;;4994880;28;20345;-87
2023/05/25 10:46:01;;;;;;;6.80;3.50;;;31.60;38.70;;;;;;4990871;28;20276;-85
2023/05/25 10:48:44;;;;;;;6.30;3.53;;;31.70;38.50;;;;;;4997630;28;20512;-87
2023/05/25 10:51:11;;;;;;;5.88;3.80;;;31.80;38.40;;;;;;5002742;28;20045;-85
2023/05/25 10:53:37;;;;;;;6.57;3.85;;;31.90;38.50;;;;;;4995899;28;20029;-88
2023/05/25 10:56:05;;;;;;;5.55;3.55;;;31.80;38.40;;;;;;5004872;28;20041;-84
2023/05/25 10:58:32;;;;;;;6.47;3.42;;;31.70;38.40;;;;;;4996251;28;20408;-86
2023/05/25 11:01:12;;;;;;;7.72;3.75;;;31.60;38.60;;;;;;4994262;28;20038;-85
2023/05/25 11:03:56;;;;;;;7.05;4.03;;;31.50;38.50;;;;;;4997132;28;20033;-86
2023/05/25 11:06:39;;;;;;;6.32;3.42;;;31.70;38.50;;;;;;5013184;28;20121;-85
2023/05/25 11:09:05;;;;;;;7.72;3.28;;;31.70;38.40;;;;;;4992709;28;20444;-82
2023/05/25 11:11:41;;;;;;;5.78;3.00;;;31.70;38.30;;;;;;4999176;28;20026;-82
2023/05/25 11:14:29;;;;;;;4.80;3.17;;;31.80;38.20;;;;;;4992991;28;20076;-83
2023/05/25 11:17:09;;;;;;;6.15;3.03;;;32.00;38.00;;;;;;5000421;28;20650;-82
2023/05/25 11:19:45;;;;;;;3.17;2.70;;;32.10;37.80;;;;;;4995559;28;20129;-81
2023/05/25 11:22:15;;;;;;;4.35;2.90;;;32.30;37.80;;;;;;4989757;28;20046;-80
2023/05/25 11:24:43;;;;;;;3.92;2.58;;;32.50;37.70;;;;;;4995105;28;20694;-81
2023/05/25 11:27:11;;;;;;;4.28;2.40;;;32.60;37.50;;;;;;4993520;28;20043;-83
2023/05/25 11:29:42;;;;;;;4.85;2.42;;;32.70;37.40;;;;;;4996404;28;20038;-83
2023/05/25 11:32:13;;;;;;;6.20;2.60;;;32.80;37.30;;;;;;4993290;28;20034;-83
2023/05/25 11:34:45;;;;;;;4.45;2.55;;;32.90;37.00;;;;;;4996886;28;20512;-82
2023/05/25 11:37:15;;;;;;;4.60;2.95;;;33.00;36.90;;;;;;4996169;28;20029;-82
2023/05/25 11:39:47;;;;;;;5.80;2.95;;;33.10;36.70;;;;;;4997094;28;20096;-83
2023/05/25 11:42:14;;;;;;;3.85;2.20;;;33.10;36.60;;;;;;4995529;28;20044;-83
2023/05/25 11:44:41;;;;;;;3.47;2.25;;;32.90;36.60;;;;;;4997815;28;20037;-82
2023/05/25 11:47:13;;;;;;;3.15;2.42;;;32.70;36.80;;;;;;4994998;28;20054;-82
2023/05/25 11:49:48;;;;;;;4.03;2.72;;;32.70;37.00;;;;;;4999855;28;20133;-82
2023/05/25 11:52:21;;;;;;;4.22;2.30;;;32.80;37.00;;;;;;4993762;28;20521;-83
2023/05/25 11:54:46;;;;;;;;;;;33.00;36.90;;;;;;4999153;28;20334;-82
2023/05/25 11:57:24;;;;;;;3.15;2.47;;;33.10;36.80;;;;;;4997996;28;19921;-83
2023/05/25 11:59:56;;;;;;;3.92;2.83;;;33.20;36.60;;;;;;4999493;28;20041;-83
2023/05/25 12:02:22;;;;;;;3.72;2.25;;;33.10;36.70;;;;;;5000771;28;20109;-82
2023/05/25 12:05:10;;;;;;;3.17;2.28;;;32.90;36.70;;;;;;4948138;28;20054;-83
2023/05/25 12:07:43;;;;;;;3.33;2.42;;;32.70;37.00;;;;;;4990707;28;20196;-83
2023/05/25 12:10:11;;;;;;;4.95;2.97;;;32.60;37.10;;;;;;5015298;28;20026;-84
2023/05/25 12:12:48;;;;;;;3.75;2.58;;;32.50;37.20;;;;;;4997830;28;20104;-81
2023/05/25 12:15:16;;;;;;;3.85;2.35;;;32.30;37.20;;;;;;4992075;28;20038;-80
2023/05/25 12:20:13;;;;;;;3.78;2.78;;;32.50;37.40;;;;;;4999916;28;20507;-81
2023/05/25 12:22:40;;;;;;;3.38;2.42;;;32.50;37.10;;;;;;4988382;28;20485;-81
2023/05/25 12:25:09;;;;;;;3.50;2.30;;;32.60;37.30;;;;;;4994928;28;20076;-81
2023/05/25 12:27:36;;;;;;;4.72;2.45;;;32.60;37.30;;;;;;4994935;28;20343;-82
2023/05/25 12:30:03;;;;;;;6.85;2.55;;;32.60;37.40;;;;;;4995309;28;20085;-81
2023/05/25 12:32:30;;;;;;;3.20;2.25;;;32.70;37.40;;;;;;4995965;28;20042;-82
2023/05/25 12:35:05;;;;;;;3.28;2.40;;;32.70;37.20;;;;;;4993707;28;20567;-81
2023/05/25 12:37:34;;;;;;;4.05;2.33;;;32.80;37.20;;;;;;4997716;28;20501;-83
2023/05/25 12:40:00;;;;;;;4.35;2.40;;;32.90;37.30;;;;;;5011064;28;20144;-81
2023/05/25 12:42:26;;;;;;;4.90;2.35;;;32.90;37.20;;;;;;5002359;28;20407;-82
2023/05/25 12:45:00;;;;;;;4.07;2.70;;;32.90;37.20;;;;;;4995269;28;20034;-82
2023/05/25 12:47:29;;;;;;;3.15;2.17;;;32.90;37.40;;;;;;4996854;28;20160;-82
2023/05/25 12:50:14;;;;;;;4.15;2.20;;;33.10;37.30;;;;;;4995890;28;20124;-82
2023/05/25 12:52:42;;;;;;;3.45;2.28;;;33.50;37.00;;;;;;4997161;28;20325;-77
2023/05/25 12:55:28;;;;;;;4.10;2.22;;;33.90;36.80;;;;;;5011070;28;20037;-78
2023/05/25 12:58:05;;;;;;;3.20;2.15;;;34.10;36.50;;;;;;4998061;28;20509;-80
2023/05/25 13:00:40;;;;;;;3.70;2.47;;;34.30;36.40;;;;;;4985937;28;20085;-81
2023/05/25 13:03:07;;;;;;;5.38;1.75;;;34.30;36.40;;;;;;5013826;28;20042;-83
2023/05/25 13:05:35;;;;;;;3.50;1.98;;;34.40;36.40;;;;;;4998037;28;20045;-83
2023/05/25 13:08:04;;;;;;;2.10;1.90;;;34.70;36.20;;;;;;4995303;28;20092;-81
2023/05/25 13:10:32;;;;;;;3.78;2.30;;;34.80;36.10;;;;;;4991093;28;20133;-80